Airport View

Enter AWOS ICAO identifier for current METAR.

ex. KFNL

PAPH 202356Z AUTO 30019G25KT 10SM BKN030 10/04 A2949 RMK AO2 PK WND 30027/2346 SLP985 60000 T01000039 10122 20094 53005

21 Sep 2019 00:35

Frequency: 135.4

Phone: 907-837-2406

Other Area AWOS: PAJC - PAPN - PAII - PAOU

TAF PASD 202321Z 2100/2124 32016KT P6SM BKN040 FM210900 30008KT P6SM FEW040 AMD LTD TO CLD VIS AND WIND